Time;durP1;ratioP1;P1;durP2;ratioP2;P2;SDS_P1;SDS_P2;PMS_P1;PMS_P2;Temp;Humidity;BMP_temperature;BMP_pressure;BME280_temperature;BME280_humidity;BME280_pressure;Samples;Min_cycle;Max_cycle;Signal;HPM_P1;HPM_P2
2022/04/29 00:01:17;;;;;;;36.80;16.55;;;;;;;;;;5096240;28;20437;-84
2022/04/29 00:03:42;;;;;;;37.95;16.75;;;;;;;;;;5077540;28;20036;-84
2022/04/29 00:06:08;;;;;;;35.40;17.08;;;;;;;;;;5095696;28;20065;-83
2022/04/29 00:08:33;;;;;;;37.38;18.13;;;;;;;;;;5094847;28;20024;-84
2022/04/29 00:10:59;;;;;;;37.75;16.70;;;;;;;;;;5095223;28;20381;-84
2022/04/29 00:13:24;;;;;;;35.90;16.45;;;;;;;;;;5094761;28;20084;-83
2022/04/29 00:15:50;;;;;;;34.85;17.08;;;;;;;;;;5094880;28;20032;-84
2022/04/29 00:18:15;;;;;;;34.47;16.67;;;;;;;;;;5094593;28;20032;-85
2022/04/29 00:20:41;;;;;;;34.25;16.10;;;;;;;;;;5077721;28;20035;-84
2022/04/29 00:23:07;;;;;;;28.45;14.77;;;;;;;;;;5094359;28;20032;-83
2022/04/29 00:25:32;;;;;;;35.47;15.60;;;;;;;;;;5094033;28;20027;-84
2022/04/29 00:27:58;;;;;;;31.45;15.23;;;;;;;;;;5077280;28;20453;-84
2022/04/29 00:30:24;;;;;;;31.38;15.15;;;;;;;;;;5094041;28;20453;-84
2022/04/29 00:32:49;;;;;;;29.95;14.80;;;;;;;;;;5094054;28;20433;-84
2022/04/29 00:35:15;;;;;;;27.73;14.13;;;;;;;;;;5093644;28;20020;-83
2022/04/29 00:37:48;;;;;;;28.85;14.45;;;;;;;;;;5094090;28;20036;-86
2022/04/29 00:40:15;;;;;;;32.25;14.63;;;;;;;;;;5077664;28;20036;-85
2022/04/29 00:42:41;;;;;;;26.10;13.77;;;;;;;;;;5077043;28;20076;-84
2022/04/29 00:45:07;;;;;;;26.92;12.90;;;;;;;;;;5093213;28;20118;-84
2022/04/29 00:47:33;;;;;;;26.60;12.68;;;;;;;;;;5094659;28;20051;-84
2022/04/29 00:49:58;;;;;;;24.50;13.00;;;;;;;;;;5093658;28;20059;-84
2022/04/29 00:52:23;;;;;;;21.85;12.43;;;;;;;;;;5093210;28;20059;-84
2022/04/29 00:54:52;;;;;;;21.92;11.63;;;;;;;;;;5093458;28;20054;-85
2022/04/29 00:58:01;;;;;;;22.98;11.73;;;;;;;;;;5094650;28;20060;-84
2022/04/29 01:00:27;;;;;;;21.58;11.40;;;;;;;;;;5072722;28;20123;-85
2022/04/29 01:02:53;;;;;;;21.20;11.75;;;;;;;;;;5093357;28;20498;-84
2022/04/29 01:05:23;;;;;;;18.60;10.50;;;;;;;;;;5077510;28;20047;-84
2022/04/29 01:07:49;;;;;;;22.27;11.77;;;;;;;;;;5076557;28;20156;-85
2022/04/29 01:10:16;;;;;;;24.35;11.43;;;;;;;;;;5093636;28;20097;-84
2022/04/29 01:12:43;;;;;;;18.25;10.70;;;;;;;;;;5076797;28;20114;-84
2022/04/29 01:15:13;;;;;;;27.58;12.02;;;;;;;;;;5060266;28;20038;-84
2022/04/29 01:17:39;;;;;;;18.20;10.55;;;;;;;;;;5093552;28;20024;-84
2022/04/29 01:20:06;;;;;;;20.42;11.05;;;;;;;;;;5076684;28;20350;-83
2022/04/29 01:22:32;;;;;;;21.77;10.77;;;;;;;;;;5092811;28;20093;-86
2022/04/29 01:24:57;;;;;;;22.15;11.88;;;;;;;;;;5076869;28;20024;-84
2022/04/29 01:27:23;;;;;;;19.25;11.30;;;;;;;;;;5094400;28;20078;-85
2022/04/29 01:29:51;;;;;;;21.38;11.52;;;;;;;;;;5093284;28;20510;-85
2022/04/29 01:32:16;;;;;;;21.70;12.15;;;;;;;;;;5093132;28;20066;-85
2022/04/29 01:34:41;;;;;;;17.83;11.38;;;;;;;;;;5076354;28;20056;-83
2022/04/29 01:37:07;;;;;;;22.23;12.10;;;;;;;;;;5094072;28;20031;-83
2022/04/29 01:39:32;;;;;;;23.42;13.02;;;;;;;;;;5094753;28;20081;-83
2022/04/29 01:41:58;;;;;;;21.98;12.38;;;;;;;;;;5092831;28;20020;-83
2022/04/29 01:44:23;;;;;;;20.38;11.88;;;;;;;;;;5076340;28;20036;-84
2022/04/29 01:46:49;;;;;;;19.83;11.93;;;;;;;;;;5093426;28;20039;-85
2022/04/29 01:49:15;;;;;;;22.05;12.15;;;;;;;;;;5093953;28;20392;-84
2022/04/29 01:51:41;;;;;;;22.25;12.38;;;;;;;;;;5092639;28;20028;-83
2022/04/29 01:54:10;;;;;;;20.95;11.93;;;;;;;;;;5092723;28;20042;-84
2022/04/29 01:56:39;;;;;;;24.33;12.55;;;;;;;;;;5095776;28;20035;-84
2022/04/29 01:59:05;;;;;;;20.40;11.90;;;;;;;;;;5097080;28;20416;-84
2022/04/29 02:01:30;;;;;;;20.65;11.57;;;;;;;;;;5098124;28;20035;-84
2022/04/29 02:03:58;;;;;;;20.83;12.23;;;;;;;;;;5079891;28;20453;-85
2022/04/29 02:06:24;;;;;;;20.05;11.90;;;;;;;;;;5096304;28;20122;-83
2022/04/29 02:08:49;;;;;;;21.35;12.20;;;;;;;;;;5096499;28;20056;-85
2022/04/29 02:11:17;;;;;;;21.42;12.25;;;;;;;;;;5096382;28;20091;-85
2022/04/29 02:13:44;;;;;;;19.70;11.80;;;;;;;;;;5097640;28;20127;-84
2022/04/29 02:16:10;;;;;;;21.80;12.20;;;;;;;;;;5098174;28;20113;-83
2022/04/29 02:18:36;;;;;;;20.70;12.23;;;;;;;;;;5096683;28;20054;-84
2022/04/29 02:21:01;;;;;;;20.38;12.40;;;;;;;;;;5097630;28;20433;-85
2022/04/29 02:23:27;;;;;;;25.27;13.60;;;;;;;;;;5096219;28;20028;-84
2022/04/29 02:25:52;;;;;;;23.55;13.18;;;;;;;;;;5097447;28;20035;-84
2022/04/29 02:28:18;;;;;;;23.17;12.73;;;;;;;;;;5097698;28;20108;-84
2022/04/29 02:30:43;;;;;;;22.00;12.52;;;;;;;;;;5097408;28;20040;-84
2022/04/29 02:33:09;;;;;;;22.95;13.00;;;;;;;;;;5096335;28;20112;-84
2022/04/29 02:35:34;;;;;;;26.27;13.15;;;;;;;;;;5079198;28;20356;-84
2022/04/29 02:38:00;;;;;;;26.58;13.95;;;;;;;;;;5097173;28;20028;-83
2022/04/29 02:40:25;;;;;;;26.83;13.60;;;;;;;;;;5097834;28;20052;-84
2022/04/29 02:42:51;;;;;;;27.60;14.18;;;;;;;;;;5096978;28;20089;-85
2022/04/29 02:45:16;;;;;;;24.08;13.10;;;;;;;;;;5096105;28;20456;-85
2022/04/29 02:47:42;;;;;;;25.80;14.25;;;;;;;;;;5095967;28;20028;-83
2022/04/29 02:50:08;;;;;;;24.52;13.80;;;;;;;;;;5079057;28;20035;-84
2022/04/29 02:52:33;;;;;;;23.65;14.45;;;;;;;;;;5097457;28;20043;-83
2022/04/29 02:54:59;;;;;;;26.05;14.98;;;;;;;;;;5082023;28;20368;-84
2022/04/29 02:57:24;;;;;;;26.33;14.38;;;;;;;;;;5098351;28;20040;-84
2022/04/29 02:59:49;;;;;;;25.98;14.90;;;;;;;;;;5084676;28;20028;-85
2022/04/29 03:02:15;;;;;;;25.08;14.15;;;;;;;;;;5078717;28;20079;-84
2022/04/29 03:04:40;;;;;;;27.00;15.15;;;;;;;;;;5103784;28;20032;-83
2022/04/29 03:07:06;;;;;;;24.10;14.43;;;;;;;;;;5115210;28;20004;-83
2022/04/29 03:09:31;;;;;;;25.50;14.55;;;;;;;;;;5099714;28;20032;-84
2022/04/29 03:11:57;;;;;;;28.77;14.80;;;;;;;;;;5116629;28;20034;-82
2022/04/29 03:14:22;;;;;;;26.90;15.00;;;;;;;;;;5109074;28;20039;-83
2022/04/29 03:16:48;;;;;;;28.77;15.43;;;;;;;;;;5116005;28;20052;-82
2022/04/29 03:19:14;;;;;;;30.17;16.13;;;;;;;;;;5106115;28;20047;-85
2022/04/29 03:21:39;;;;;;;29.20;15.00;;;;;;;;;;5096649;28;20353;-84
2022/04/29 03:24:05;;;;;;;26.02;15.25;;;;;;;;;;5094830;28;20040;-84
2022/04/29 03:26:31;;;;;;;26.75;15.20;;;;;;;;;;5095357;28;20028;-85
2022/04/29 03:28:56;;;;;;;28.45;15.10;;;;;;;;;;5096564;28;20115;-86
2022/04/29 03:31:25;;;;;;;28.75;15.23;;;;;;;;;;5096374;28;20464;-85
2022/04/29 03:33:50;;;;;;;29.08;16.33;;;;;;;;;;5096152;28;20040;-85
2022/04/29 03:36:16;;;;;;;27.23;15.02;;;;;;;;;;5095374;28;20379;-85
2022/04/29 03:38:41;;;;;;;29.15;15.60;;;;;;;;;;5096359;28;20055;-85
2022/04/29 03:41:07;;;;;;;29.13;15.82;;;;;;;;;;5078027;28;20024;-84
2022/04/29 03:43:32;;;;;;;28.75;15.02;;;;;;;;;;5094889;28;20085;-86
2022/04/29 03:45:58;;;;;;;32.22;15.35;;;;;;;;;;5078285;28;20032;-83
2022/04/29 03:48:24;;;;;;;31.45;16.95;;;;;;;;;;5077924;28;20110;-85
2022/04/29 03:50:50;;;;;;;25.63;15.48;;;;;;;;;;5094566;28;20075;-86
2022/04/29 03:53:15;;;;;;;27.20;15.55;;;;;;;;;;5094836;28;20040;-85
2022/04/29 03:55:41;;;;;;;28.70;15.88;;;;;;;;;;5095689;28;20115;-85
2022/04/29 03:58:06;;;;;;;28.65;15.88;;;;;;;;;;5094535;28;20161;-86
2022/04/29 04:00:33;;;;;;;28.15;15.32;;;;;;;;;;5095762;28;20032;-86
2022/04/29 04:02:59;;;;;;;27.70;15.98;;;;;;;;;;5060575;28;20039;-86
2022/04/29 04:05:24;;;;;;;26.17;14.90;;;;;;;;;;5060781;28;20028;-82
2022/04/29 04:07:50;;;;;;;28.35;15.70;;;;;;;;;;5095380;28;20028;-81
2022/04/29 04:10:15;;;;;;;25.67;14.63;;;;;;;;;;5094026;28;20136;-81
2022/04/29 04:12:51;;;;;;;26.63;15.73;;;;;;;;;;5094641;28;20448;-82
2022/04/29 04:15:20;;;;;;;29.13;14.43;;;;;;;;;;5077836;28;20039;-81
2022/04/29 04:17:46;;;;;;;23.60;14.68;;;;;;;;;;5095569;28;20040;-82
2022/04/29 04:20:13;;;;;;;27.13;13.77;;;;;;;;;;5093472;28;20035;-81
2022/04/29 04:22:38;;;;;;;22.02;12.70;;;;;;;;;;5096624;28;20034;-81
2022/04/29 04:25:09;;;;;;;25.08;13.65;;;;;;;;;;5095016;28;20436;-80
2022/04/29 04:27:34;;;;;;;46.50;14.20;;;;;;;;;;5095433;28;20088;-81
2022/04/29 04:30:00;;;;;;;36.63;14.10;;;;;;;;;;5060237;28;20338;-81
2022/04/29 04:32:26;;;;;;;35.13;13.25;;;;;;;;;;5094013;28;20032;-81
2022/04/29 04:34:55;;;;;;;49.97;13.98;;;;;;;;;;5077305;28;20441;-82
2022/04/29 04:37:22;;;;;;;39.00;14.15;;;;;;;;;;5095986;28;20086;-81
2022/04/29 04:39:48;;;;;;;27.50;12.30;;;;;;;;;;5095620;28;20043;-83
2022/04/29 04:42:15;;;;;;;29.27;13.25;;;;;;;;;;5096870;28;20047;-82
2022/04/29 04:44:41;;;;;;;23.13;12.88;;;;;;;;;;5095459;28;20453;-82
2022/04/29 04:47:07;;;;;;;21.35;12.38;;;;;;;;;;5093870;28;20032;-83
2022/04/29 04:57:32;;;;;;;16.80;10.80;;;;;;;;;;5704263;22;20045;-81
2022/04/29 05:00:01;;;;;;;20.30;11.85;;;;;;;;;;5049510;28;20127;-84
2022/04/29 05:18:38;;;;;;;9.77;6.95;;;;;;;;;;5642847;22;20055;-85
2022/04/29 05:21:07;;;;;;;10.40;7.00;;;;;;;;;;5072230;28;20033;-85
2022/04/29 05:27:07;;;;;;;9.95;6.45;;;;;;;;;;4964462;28;20089;-81
2022/04/29 05:38:01;;;;;;;6.30;4.82;;;;;;;;;;6005187;22;20449;-82
2022/04/29 05:43:49;;;;;;;4.68;3.67;;;;;;;;;;5065826;22;20117;-80
2022/04/29 05:50:14;;;;;;;5.38;3.17;;;;;;;;;;4995457;28;20034;-86
2022/04/29 05:59:23;;;;;;;3.40;3.10;;;;;;;;;;5074332;22;21710;-78
2022/04/29 06:01:49;;;;;;;3.63;2.90;;;;;;;;;;5073844;28;20118;-77
2022/04/29 06:04:16;;;;;;;6.30;3.03;;;;;;;;;;5108471;28;20032;-79
2022/04/29 06:06:41;;;;;;;10.70;7.53;;;;;;;;;;5088051;28;20085;-78
2022/04/29 06:09:07;;;;;;;5.20;4.65;;;;;;;;;;5095364;28;20024;-80
2022/04/29 06:11:55;;;;;;;;;;;;;;;;;;;;;
2022/04/29 06:14:23;;;;;;;3.30;2.75;;;;;;;;;;5063276;28;20041;-78
2022/04/29 06:16:52;;;;;;;4.55;2.10;;;;;;;;;;5085966;28;20358;-81
2022/04/29 06:19:48;;;;;;;3.95;2.58;;;;;;;;;;5074557;28;20127;-79
2022/04/29 06:22:14;;;;;;;5.25;2.95;;;;;;;;;;5079844;28;20027;-80
2022/04/29 06:24:46;;;;;;;5.00;4.18;;;;;;;;;;5078774;28;20078;-81
2022/04/29 06:27:15;;;;;;;2.15;1.90;;;;;;;;;;5080192;28;20036;-78
2022/04/29 06:29:40;;;;;;;;;;;;;;;;;;5078553;28;20040;-78
2022/04/29 06:32:07;;;;;;;2.85;2.33;;;;;;;;;;5088704;28;19912;-78
2022/04/29 06:34:33;;;;;;;6.57;4.72;;;;;;;;;;5079869;28;20025;-78
2022/04/29 06:37:07;;;;;;;7.70;5.30;;;;;;;;;;5094719;28;20036;-79
2022/04/29 06:39:37;;;;;;;3.00;2.67;;;;;;;;;;5079703;28;20032;-79
2022/04/29 06:42:04;;;;;;;3.08;2.70;;;;;;;;;;5079770;28;20028;-81
2022/04/29 06:44:30;;;;;;;5.20;3.85;;;;;;;;;;5065021;28;20196;-83
2022/04/29 06:47:17;;;;;;;2.53;2.10;;;;;;;;;;5096684;28;20088;-82
2022/04/29 06:50:20;;;;;;;5.07;2.70;;;;;;;;;;5079099;28;20039;-80
2022/04/29 06:52:46;;;;;;;4.75;2.45;;;;;;;;;;5081557;28;20089;-81
2022/04/29 06:55:11;;;;;;;4.72;2.42;;;;;;;;;;5093397;28;20028;-79
2022/04/29 06:57:37;;;;;;;8.82;2.13;;;;;;;;;;5092060;28;20028;-79
2022/04/29 07:00:08;;;;;;;4.35;2.20;;;;;;;;;;5056964;28;20393;-80
2022/04/29 07:02:52;;;;;;;5.20;4.40;;;;;;;;;;5055744;28;20072;-81
2022/04/29 07:05:17;;;;;;;5.55;2.55;;;;;;;;;;5040744;28;20049;-78
2022/04/29 07:07:43;;;;;;;7.22;5.55;;;;;;;;;;5051981;28;20477;-82
2022/04/29 07:10:09;;;;;;;4.38;1.95;;;;;;;;;;5051566;28;20254;-77
2022/04/29 07:12:42;;;;;;;7.18;3.45;;;;;;;;;;5053050;28;20089;-79
2022/04/29 07:15:10;;;;;;;5.00;2.35;;;;;;;;;;5055619;28;20060;-79
2022/04/29 07:18:02;;;;;;;4.82;3.28;;;;;;;;;;5053564;28;20037;-82
2022/04/29 07:20:28;;;;;;;9.35;5.75;;;;;;;;;;5050127;28;20037;-79
2022/04/29 07:22:53;;;;;;;10.25;5.40;;;;;;;;;;5040523;28;20413;-77
2022/04/29 07:25:19;;;;;;;2.40;2.20;;;;;;;;;;5039849;28;20036;-77
2022/04/29 07:27:53;;;;;;;3.78;3.00;;;;;;;;;;5056508;28;20025;-78
2022/04/29 07:30:18;;;;;;;2.90;2.13;;;;;;;;;;5058724;28;20029;-80
2022/04/29 07:32:44;;;;;;;2.83;2.13;;;;;;;;;;5058576;28;20048;-79
2022/04/29 07:43:46;;;;;;;4.47;2.50;;;;;;;;;;5057818;28;20032;-76
2022/04/29 07:46:12;;;;;;;4.07;2.50;;;;;;;;;;5056966;28;20405;-78
2022/04/29 07:48:39;;;;;;;3.28;2.30;;;;;;;;;;5059579;28;20443;-80
2022/04/29 07:51:06;;;;;;;9.60;2.53;;;;;;;;;;5037190;28;20431;-78
2022/04/29 07:53:31;;;;;;;2.30;2.10;;;;;;;;;;5050716;28;20090;-78
2022/04/29 07:55:57;;;;;;;2.60;2.17;;;;;;;;;;5051729;28;20407;-79
2022/04/29 07:58:23;;;;;;;3.65;2.20;;;;;;;;;;5055814;28;20047;-81
2022/04/29 08:00:48;;;;;;;2.47;2.15;;;;;;;;;;5095504;28;20027;-79
2022/04/29 08:03:14;;;;;;;3.28;2.28;;;;;;;;;;5095488;28;20043;-76
2022/04/29 08:05:40;;;;;;;10.02;2.60;;;;;;;;;;5096442;28;20085;-77
2022/04/29 08:08:05;;;;;;;9.50;2.28;;;;;;;;;;5096153;28;20534;-78
2022/04/29 08:10:32;;;;;;;3.83;2.28;;;;;;;;;;5068112;28;20078;-79
2022/04/29 08:13:01;;;;;;;3.28;2.45;;;;;;;;;;5094366;28;20038;-77
2022/04/29 08:15:26;;;;;;;;;;;;;;;;;;5093191;28;20117;-77
2022/04/29 08:17:52;;;;;;;3.10;2.50;;;;;;;;;;5091970;28;19981;-77
2022/04/29 08:20:18;;;;;;;8.82;3.58;;;;;;;;;;5092972;28;20050;-77
2022/04/29 08:22:43;;;;;;;8.88;5.97;;;;;;;;;;5074008;28;20029;-78
2022/04/29 08:25:09;;;;;;;4.07;2.60;;;;;;;;;;5093301;28;20035;-78
2022/04/29 08:27:35;;;;;;;9.90;6.55;;;;;;;;;;5059884;28;20119;-76
2022/04/29 08:30:03;;;;;;;4.10;2.42;;;;;;;;;;5094064;28;20441;-80
2022/04/29 08:32:28;;;;;;;8.98;7.00;;;;;;;;;;5094844;28;20028;-77
2022/04/29 08:34:54;;;;;;;4.75;2.88;;;;;;;;;;5076733;28;20040;-77
2022/04/29 08:37:20;;;;;;;2.80;2.10;;;;;;;;;;5094391;28;20073;-77
2022/04/29 08:39:46;;;;;;;5.95;2.65;;;;;;;;;;5095133;28;20092;-78
2022/04/29 08:42:11;;;;;;;7.72;4.43;;;;;;;;;;5076237;28;20028;-78
2022/04/29 08:44:37;;;;;;;2.95;2.35;;;;;;;;;;5093118;28;20312;-77
2022/04/29 08:47:04;;;;;;;4.80;2.63;;;;;;;;;;5076795;28;20088;-78
2022/04/29 08:49:30;;;;;;;8.52;2.55;;;;;;;;;;5037498;28;20048;-82
2022/04/29 08:51:55;;;;;;;2.40;2.20;;;;;;;;;;5056595;28;20028;-78
2022/04/29 09:00:16;;;;;;;4.50;3.30;;;;;;;;;;4992063;28;20048;-78
2022/04/29 09:02:41;;;;;;;5.07;3.80;;;;;;;;;;4991065;28;20109;-77
2022/04/29 09:05:10;;;;;;;9.80;6.95;;;;;;;;;;5009736;28;20034;-76
2022/04/29 09:08:11;;;;;;;4.22;3.40;;;;;;;;;;5034432;28;20056;-75
2022/04/29 09:10:38;;;;;;;6.78;3.10;;;;;;;;;;5011046;28;20171;-78
2022/04/29 09:13:11;;;;;;;9.90;4.55;;;;;;;;;;5066233;28;20417;-77
2022/04/29 09:15:37;;;;;;;2.35;2.15;;;;;;;;;;5073113;28;20120;-77
2022/04/29 09:18:06;;;;;;;12.07;6.95;;;;;;;;;;5072711;28;20028;-76
2022/04/29 09:20:31;;;;;;;6.13;4.57;;;;;;;;;;5087619;28;20032;-77
2022/04/29 09:22:57;;;;;;;6.72;4.88;;;;;;;;;;5072947;28;20511;-78
2022/04/29 09:25:23;;;;;;;5.85;4.00;;;;;;;;;;5073707;28;20056;-77
2022/04/29 09:27:59;;;;;;;8.00;5.13;;;;;;;;;;5073466;28;20082;-77
2022/04/29 09:30:40;;;;;;;2.95;2.35;;;;;;;;;;5077158;28;20033;-78
2022/04/29 09:33:23;;;;;;;6.95;5.13;;;;;;;;;;5073344;28;20036;-80
2022/04/29 09:35:51;;;;;;;3.85;2.67;;;;;;;;;;5074479;28;20039;-78
2022/04/29 09:41:26;;;;;;;3.78;2.25;;;;;;;;;;5073121;28;20035;-80
2022/04/29 09:43:52;;;;;;;20.20;9.35;;;;;;;;;;5058400;28;20127;-77
2022/04/29 09:46:22;;;;;;;4.60;2.88;;;;;;;;;;5052773;28;20136;-77
2022/04/29 09:49:06;;;;;;;3.17;2.40;;;;;;;;;;5051024;28;20120;-76
2022/04/29 09:51:51;;;;;;;2.75;2.35;;;;;;;;;;5053714;28;20039;-78
2022/04/29 09:54:23;;;;;;;2.75;2.30;;;;;;;;;;5066913;28;20025;-78
2022/04/29 09:57:13;;;;;;;12.43;4.80;;;;;;;;;;5034809;28;20052;-77
2022/04/29 09:59:46;;;;;;;13.05;3.40;;;;;;;;;;5059788;28;20056;-76
2022/04/29 10:02:16;;;;;;;3.72;2.30;;;;;;;;;;5074764;28;20028;-78
2022/04/29 10:05:07;;;;;;;4.07;3.00;;;;;;;;;;5074269;28;20124;-79
2022/04/29 10:07:32;;;;;;;2.50;2.30;;;;;;;;;;5075425;28;20044;-79
2022/04/29 10:09:58;;;;;;;2.67;2.03;;;;;;;;;;5056201;28;20035;-77
2022/04/29 10:12:25;;;;;;;3.22;2.15;;;;;;;;;;5055651;28;20033;-78
2022/04/29 10:14:58;;;;;;;5.60;3.65;;;;;;;;;;5079584;28;20025;-76
2022/04/29 10:23:03;;;;;;;26.23;13.57;;;;;;;;;;5073276;28;20402;-77
2022/04/29 10:25:29;;;;;;;6.25;3.03;;;;;;;;;;5078913;28;20029;-77
2022/04/29 10:27:55;;;;;;;9.80;4.60;;;;;;;;;;5060651;28;20116;-77
2022/04/29 10:30:26;;;;;;;6.18;3.50;;;;;;;;;;5075851;28;20028;-76
2022/04/29 10:33:13;;;;;;;3.42;2.40;;;;;;;;;;5076152;28;20028;-77
2022/04/29 10:36:26;;;;;;;6.10;1.85;;;;;;;;;;5085054;28;20092;-75
2022/04/29 10:39:01;;;;;;;7.25;2.55;;;;;;;;;;5085403;28;20059;-77
2022/04/29 10:41:26;;;;;;;4.97;2.13;;;;;;;;;;5087607;28;20127;-77
2022/04/29 10:43:55;;;;;;;3.25;2.50;;;;;;;;;;5095681;28;20118;-78
2022/04/29 10:46:24;;;;;;;17.92;11.18;;;;;;;;;;5078134;28;20032;-77
2022/04/29 10:48:53;;;;;;;27.93;16.70;;;;;;;;;;5095646;28;20024;-78
2022/04/29 10:51:45;;;;;;;8.50;6.18;;;;;;;;;;5095431;28;20059;-77
2022/04/29 10:54:11;;;;;;;6.47;4.70;;;;;;;;;;5086437;28;20050;-77
2022/04/29 10:56:37;;;;;;;9.35;6.03;;;;;;;;;;5078102;28;20154;-78
2022/04/29 10:59:11;;;;;;;5.88;4.28;;;;;;;;;;5045095;28;20052;-77
2022/04/29 11:01:38;;;;;;;2.30;1.90;;;;;;;;;;5096873;28;20032;-77
2022/04/29 11:04:15;;;;;;;10.50;4.65;;;;;;;;;;5077852;28;20039;-77
2022/04/29 11:06:46;;;;;;;23.63;13.65;;;;;;;;;;5095449;28;20024;-79
2022/04/29 11:09:45;;;;;;;8.35;5.05;;;;;;;;;;5078025;28;20438;-79
2022/04/29 11:12:47;;;;;;;31.70;19.17;;;;;;;;;;5077742;28;20031;-77
2022/04/29 11:15:16;;;;;;;5.28;3.95;;;;;;;;;;5079489;28;20028;-78
2022/04/29 11:17:43;;;;;;;5.97;4.30;;;;;;;;;;5095398;28;21096;-78
2022/04/29 11:20:26;;;;;;;3.08;2.70;;;;;;;;;;5096163;28;20115;-79
2022/04/29 11:25:53;;;;;;;6.00;4.65;;;;;;;;;;5097493;28;20038;-76
2022/04/29 11:28:21;;;;;;;4.63;3.60;;;;;;;;;;5078494;28;20028;-78
2022/04/29 11:30:47;;;;;;;19.60;12.65;;;;;;;;;;5096532;28;20059;-76
2022/04/29 11:33:13;;;;;;;10.38;6.35;;;;;;;;;;5061189;28;20040;-78
2022/04/29 11:35:39;;;;;;;6.25;4.50;;;;;;;;;;5096306;28;20054;-77
2022/04/29 11:38:07;;;;;;;7.70;5.32;;;;;;;;;;5095312;28;20034;-76
2022/04/29 11:40:36;;;;;;;11.63;7.38;;;;;;;;;;5060200;28;20024;-77
2022/04/29 11:43:07;;;;;;;4.43;3.17;;;;;;;;;;5078026;28;20024;-76
2022/04/29 11:45:33;;;;;;;3.95;3.35;;;;;;;;;;5078082;28;20024;-76
2022/04/29 11:48:06;;;;;;;5.28;4.63;;;;;;;;;;5062416;28;20031;-77
2022/04/29 11:50:32;;;;;;;4.35;3.42;;;;;;;;;;5077941;28;20111;-77
2022/04/29 11:53:05;;;;;;;14.07;7.32;;;;;;;;;;5077136;28;20036;-78
2022/04/29 11:55:30;;;;;;;8.30;4.53;;;;;;;;;;5079667;28;20469;-76
2022/04/29 11:57:56;;;;;;;13.52;9.25;;;;;;;;;;5078598;28;20492;-77
2022/04/29 12:00:25;;;;;;;7.85;4.75;;;;;;;;;;5095975;28;20055;-77
2022/04/29 12:02:51;;;;;;;11.53;7.33;;;;;;;;;;5078673;28;20458;-77
2022/04/29 12:05:17;;;;;;;5.57;3.45;;;;;;;;;;5096824;28;20048;-76
2022/04/29 12:07:45;;;;;;;4.18;3.38;;;;;;;;;;5062807;28;20035;-78
2022/04/29 12:10:20;;;;;;;7.75;5.22;;;;;;;;;;5097510;28;20032;-76
2022/04/29 12:12:49;;;;;;;13.05;6.95;;;;;;;;;;5101832;28;20547;-77
2022/04/29 12:15:19;;;;;;;14.20;9.00;;;;;;;;;;5100801;28;20024;-77
2022/04/29 12:17:44;;;;;;;10.77;6.47;;;;;;;;;;5064951;28;20032;-79
2022/04/29 12:20:16;;;;;;;3.17;2.60;;;;;;;;;;5086186;28;20039;-84
2022/04/29 12:22:41;;;;;;;3.10;2.70;;;;;;;;;;5069109;28;20114;-83
2022/04/29 12:25:30;;;;;;;3.17;2.88;;;;;;;;;;5104934;28;20039;-84
2022/04/29 12:28:25;;;;;;;18.15;10.13;;;;;;;;;;5069810;28;20181;-84
2022/04/29 12:36:53;;;;;;;2.80;2.17;;;;;;;;;;5105927;28;20034;-86
2022/04/29 12:39:24;;;;;;;3.15;2.08;;;;;;;;;;5070314;28;20104;-84
2022/04/29 12:42:03;;;;;;;3.22;2.08;;;;;;;;;;5079364;28;20032;-84
2022/04/29 12:45:04;;;;;;;4.43;2.43;;;;;;;;;;5076944;28;20120;-86
2022/04/29 12:47:39;;;;;;;2.05;1.90;;;;;;;;;;5062429;28;20360;-86
2022/04/29 12:50:28;;;;;;;2.22;2.03;;;;;;;;;;5076840;28;20038;-85
2022/04/29 12:53:13;;;;;;;2.70;1.88;;;;;;;;;;5077841;28;20046;-84
2022/04/29 12:55:50;;;;;;;2.13;1.85;;;;;;;;;;5079653;28;20040;-85
2022/04/29 12:58:15;;;;;;;2.75;1.90;;;;;;;;;;5076604;28;20024;-85
2022/04/29 13:00:45;;;;;;;2.38;2.17;;;;;;;;;;5076451;28;20415;-84
2022/04/29 13:03:16;;;;;;;2.72;2.15;;;;;;;;;;5077402;28;20127;-85
2022/04/29 13:05:43;;;;;;;2.17;1.98;;;;;;;;;;5059903;28;20035;-85
2022/04/29 13:08:09;;;;;;;2.65;2.08;;;;;;;;;;5095076;28;20438;-85
2022/04/29 13:11:03;;;;;;;6.47;2.33;;;;;;;;;;5093468;28;20089;-85
2022/04/29 13:13:29;;;;;;;2.90;2.17;;;;;;;;;;5090566;28;20135;-84
2022/04/29 13:15:54;;;;;;;3.00;2.40;;;;;;;;;;5094517;28;20114;-85
2022/04/29 13:18:20;;;;;;;2.85;2.45;;;;;;;;;;5076879;28;20338;-84
2022/04/29 13:20:46;;;;;;;3.72;2.50;;;;;;;;;;5076777;28;20032;-85
2022/04/29 13:23:12;;;;;;;3.30;2.78;;;;;;;;;;5094421;28;20028;-84
2022/04/29 13:25:38;;;;;;;3.55;2.50;;;;;;;;;;5094654;28;20123;-84
2022/04/29 13:28:04;;;;;;;3.50;2.80;;;;;;;;;;5059619;28;20024;-85
2022/04/29 13:30:29;;;;;;;4.65;3.00;;;;;;;;;;5094921;28;20455;-83
2022/04/29 13:32:55;;;;;;;5.07;3.22;;;;;;;;;;5086066;28;20036;-85
2022/04/29 13:35:21;;;;;;;4.47;3.45;;;;;;;;;;5068864;28;20035;-81
2022/04/29 13:37:47;;;;;;;5.30;3.85;;;;;;;;;;5097568;28;20008;-83
2022/04/29 13:40:12;;;;;;;7.43;4.18;;;;;;;;;;5100673;28;20028;-83
2022/04/29 13:42:39;;;;;;;11.00;4.90;;;;;;;;;;5100410;28;20110;-85
2022/04/29 13:45:05;;;;;;;5.25;4.38;;;;;;;;;;5081693;28;20072;-85
2022/04/29 13:47:34;;;;;;;5.82;4.53;;;;;;;;;;5100208;28;20043;-85
2022/04/29 13:50:00;;;;;;;4.18;3.75;;;;;;;;;;5070664;28;20437;-84
2022/04/29 13:55:11;;;;;;;8.98;4.05;;;;;;;;;;5078099;28;20035;-83
2022/04/29 13:57:36;;;;;;;7.55;4.65;;;;;;;;;;5079951;28;20442;-85
2022/04/29 14:00:04;;;;;;;6.63;4.38;;;;;;;;;;5098190;28;20040;-84
2022/04/29 14:02:29;;;;;;;6.13;4.60;;;;;;;;;;5080394;28;20059;-84
2022/04/29 14:04:56;;;;;;;6.50;4.50;;;;;;;;;;5098140;28;20445;-84
2022/04/29 14:07:21;;;;;;;6.07;4.38;;;;;;;;;;5098169;28;20084;-85
2022/04/29 14:09:46;;;;;;;5.40;4.70;;;;;;;;;;5098032;28;21105;-85
2022/04/29 14:12:12;;;;;;;6.50;5.05;;;;;;;;;;5097982;28;20032;-85
2022/04/29 14:14:39;;;;;;;6.15;4.90;;;;;;;;;;5098244;28;20066;-82
2022/04/29 14:17:05;;;;;;;8.52;5.35;;;;;;;;;;5080073;28;20373;-84
2022/04/29 14:19:31;;;;;;;7.35;4.97;;;;;;;;;;5079646;28;20024;-83
2022/04/29 14:21:56;;;;;;;10.43;5.30;;;;;;;;;;5063007;28;20403;-84
2022/04/29 14:24:22;;;;;;;8.90;5.60;;;;;;;;;;5062040;28;20480;-83
2022/04/29 14:26:47;;;;;;;7.57;5.25;;;;;;;;;;5045715;28;20123;-83
2022/04/29 14:29:14;;;;;;;7.10;5.38;;;;;;;;;;5079474;28;20133;-83
2022/04/29 14:31:40;;;;;;;8.57;5.00;;;;;;;;;;5079411;28;20028;-82
2022/04/29 14:34:06;;;;;;;5.40;4.85;;;;;;;;;;5079322;28;20032;-84
2022/04/29 14:36:32;;;;;;;6.78;5.25;;;;;;;;;;5062950;28;20076;-84
2022/04/29 14:39:01;;;;;;;9.77;4.78;;;;;;;;;;5062501;28;20528;-84
2022/04/29 14:41:27;;;;;;;7.68;5.28;;;;;;;;;;5097537;28;20445;-84
2022/04/29 14:43:53;;;;;;;9.13;5.25;;;;;;;;;;5079090;28;20039;-83
2022/04/29 14:46:22;;;;;;;7.45;5.55;;;;;;;;;;5046314;28;20419;-86
2022/04/29 14:48:49;;;;;;;7.90;5.43;;;;;;;;;;5095759;28;20040;-85
2022/04/29 14:51:15;;;;;;;6.35;5.28;;;;;;;;;;5079958;28;20043;-85
2022/04/29 14:53:40;;;;;;;7.20;5.25;;;;;;;;;;5097050;28;20040;-84
2022/04/29 14:56:07;;;;;;;10.80;5.57;;;;;;;;;;5097254;28;20036;-84
2022/04/29 14:58:32;;;;;;;10.85;5.13;;;;;;;;;;5097264;28;20055;-82
2022/04/29 15:00:58;;;;;;;6.65;5.30;;;;;;;;;;5079441;28;20028;-82
2022/04/29 15:03:24;;;;;;;6.13;4.93;;;;;;;;;;5095840;28;20020;-86
2022/04/29 15:05:50;;;;;;;6.63;5.25;;;;;;;;;;5078629;28;20362;-86
2022/04/29 15:08:15;;;;;;;6.78;5.10;;;;;;;;;;5096613;28;20453;-84
2022/04/29 15:16:09;;;;;;;9.52;4.82;;;;;;;;;;5096479;28;20030;-83
2022/04/29 15:18:34;;;;;;;7.63;4.95;;;;;;;;;;5061901;28;20447;-86
2022/04/29 15:21:00;;;;;;;7.40;5.10;;;;;;;;;;5097028;28;20032;-86
2022/04/29 15:23:25;;;;;;;6.47;4.90;;;;;;;;;;5061669;28;20028;-84
2022/04/29 15:25:51;;;;;;;7.72;5.65;;;;;;;;;;5061955;28;20024;-86
2022/04/29 15:28:17;;;;;;;6.57;5.05;;;;;;;;;;5096534;28;20081;-84
2022/04/29 15:30:47;;;;;;;6.90;5.45;;;;;;;;;;5078345;28;20516;-86
2022/04/29 15:33:13;;;;;;;7.53;5.35;;;;;;;;;;5078612;28;20085;-85
2022/04/29 15:35:39;;;;;;;7.18;5.28;;;;;;;;;;5078227;28;20119;-85
2022/04/29 15:38:05;;;;;;;6.07;4.97;;;;;;;;;;5096195;28;20111;-84
2022/04/29 15:40:30;;;;;;;7.65;5.30;;;;;;;;;;5078675;28;20032;-83
2022/04/29 15:42:56;;;;;;;8.55;5.13;;;;;;;;;;5078257;28;20500;-84
2022/04/29 15:45:22;;;;;;;7.57;4.55;;;;;;;;;;5096486;28;20028;-84
2022/04/29 15:47:48;;;;;;;7.43;5.00;;;;;;;;;;5061717;28;20123;-84
2022/04/29 15:50:13;;;;;;;6.60;5.18;;;;;;;;;;5096601;28;20107;-83
2022/04/29 15:52:39;;;;;;;7.40;5.88;;;;;;;;;;5061163;28;20445;-85
2022/04/29 15:55:05;;;;;;;7.95;5.65;;;;;;;;;;5077632;28;20096;-85
2022/04/29 15:57:30;;;;;;;6.03;4.97;;;;;;;;;;5061617;28;20069;-85
2022/04/29 15:59:56;;;;;;;7.05;5.28;;;;;;;;;;5096387;28;20044;-84
2022/04/29 16:02:22;;;;;;;6.55;5.25;;;;;;;;;;5096999;28;20713;-83
2022/04/29 16:04:47;;;;;;;6.78;5.43;;;;;;;;;;5082526;28;20028;-84
2022/04/29 16:07:12;;;;;;;6.32;5.25;;;;;;;;;;5100271;28;20032;-83
2022/04/29 16:09:38;;;;;;;8.88;5.25;;;;;;;;;;5100297;28;20043;-82
2022/04/29 16:12:04;;;;;;;6.40;5.45;;;;;;;;;;5096893;28;20054;-83